sensor_id;sensor_type;location;lat;lon;timestamp;temperature;humidity
10089;DHT22;51898;49.864;8.550;2023-05-07T00:01:01;16.00;73.00
10089;DHT22;51898;49.864;8.550;2023-05-07T00:04:03;16.00;73.00
10089;DHT22;51898;49.864;8.550;2023-05-07T00:07:05;16.10;73.40
10089;DHT22;51898;49.864;8.550;2023-05-07T00:10:07;16.00;73.60
10089;DHT22;51898;49.864;8.550;2023-05-07T00:13:10;16.00;73.80
10089;DHT22;51898;49.864;8.550;2023-05-07T00:16:11;16.00;73.60
10089;DHT22;51898;49.864;8.550;2023-05-07T00:19:13;16.00;73.60
10089;DHT22;51898;49.864;8.550;2023-05-07T00:22:17;16.00;73.60
10089;DHT22;51898;49.864;8.550;2023-05-07T00:25:18;16.00;73.80
10089;DHT22;51898;49.864;8.550;2023-05-07T00:28:21;16.00;74.10
10089;DHT22;51898;49.864;8.550;2023-05-07T00:31:22;16.00;74.00
10089;DHT22;51898;49.864;8.550;2023-05-07T00:34:24;16.00;74.10
10089;DHT22;51898;49.864;8.550;2023-05-07T00:37:26;15.90;74.50
10089;DHT22;51898;49.864;8.550;2023-05-07T00:40:27;15.90;74.60
10089;DHT22;51898;49.864;8.550;2023-05-07T00:43:29;15.90;74.80
10089;DHT22;51898;49.864;8.550;2023-05-07T00:46:31;15.80;75.00
10089;DHT22;51898;49.864;8.550;2023-05-07T00:49:39;15.80;75.20
10089;DHT22;51898;49.864;8.550;2023-05-07T00:52:41;15.60;75.70
10089;DHT22;51898;49.864;8.550;2023-05-07T00:55:43;15.60;76.10
10089;DHT22;51898;49.864;8.550;2023-05-07T00:58:45;15.60;76.20
10089;DHT22;51898;49.864;8.550;2023-05-07T01:01:47;15.60;76.50
10089;DHT22;51898;49.864;8.550;2023-05-07T01:04:49;15.50;76.60
10089;DHT22;51898;49.864;8.550;2023-05-07T01:07:52;15.50;76.80
10089;DHT22;51898;49.864;8.550;2023-05-07T01:10:56;15.50;77.10
10089;DHT22;51898;49.864;8.550;2023-05-07T01:13:59;15.40;77.20
10089;DHT22;51898;49.864;8.550;2023-05-07T01:17:00;15.40;77.40
10089;DHT22;51898;49.864;8.550;2023-05-07T01:20:04;15.40;77.60
10089;DHT22;51898;49.864;8.550;2023-05-07T01:23:07;15.30;77.90
10089;DHT22;51898;49.864;8.550;2023-05-07T01:26:09;15.30;78.20
10089;DHT22;51898;49.864;8.550;2023-05-07T01:29:10;15.30;78.40
10089;DHT22;51898;49.864;8.550;2023-05-07T01:32:13;15.30;78.60
10089;DHT22;51898;49.864;8.550;2023-05-07T01:35:20;15.20;78.80
10089;DHT22;51898;49.864;8.550;2023-05-07T01:38:24;15.20;79.10
10089;DHT22;51898;49.864;8.550;2023-05-07T01:41:26;15.20;79.30
10089;DHT22;51898;49.864;8.550;2023-05-07T01:44:28;15.20;79.40
10089;DHT22;51898;49.864;8.550;2023-05-07T01:47:30;15.20;79.50
10089;DHT22;51898;49.864;8.550;2023-05-07T01:50:32;15.10;79.90
10089;DHT22;51898;49.864;8.550;2023-05-07T01:53:39;15.10;80.00
10089;DHT22;51898;49.864;8.550;2023-05-07T01:56:40;15.10;80.10
10089;DHT22;51898;49.864;8.550;2023-05-07T01:59:42;15.10;80.20
10089;DHT22;51898;49.864;8.550;2023-05-07T02:02:44;15.10;80.30
10089;DHT22;51898;49.864;8.550;2023-05-07T02:05:45;15.10;80.50
10089;DHT22;51898;49.864;8.550;2023-05-07T02:08:47;15.10;80.50
10089;DHT22;51898;49.864;8.550;2023-05-07T02:11:49;15.10;80.70
10089;DHT22;51898;49.864;8.550;2023-05-07T02:14:50;15.00;80.90
10089;DHT22;51898;49.864;8.550;2023-05-07T02:18:07;15.00;81.10
10089;DHT22;51898;49.864;8.550;2023-05-07T02:21:09;15.00;81.10
10089;DHT22;51898;49.864;8.550;2023-05-07T02:24:10;15.00;81.40
10089;DHT22;51898;49.864;8.550;2023-05-07T02:27:12;14.90;81.60
10089;DHT22;51898;49.864;8.550;2023-05-07T02:30:14;14.90;81.80
10089;DHT22;51898;49.864;8.550;2023-05-07T02:33:16;14.80;82.30
10089;DHT22;51898;49.864;8.550;2023-05-07T02:36:18;14.80;82.40
10089;DHT22;51898;49.864;8.550;2023-05-07T02:39:19;14.80;82.70
10089;DHT22;51898;49.864;8.550;2023-05-07T02:42:21;14.80;82.80
10089;DHT22;51898;49.864;8.550;2023-05-07T02:45:22;14.70;83.10
10089;DHT22;51898;49.864;8.550;2023-05-07T02:48:24;14.70;83.30
10089;DHT22;51898;49.864;8.550;2023-05-07T02:51:26;14.70;83.50
10089;DHT22;51898;49.864;8.550;2023-05-07T02:54:28;14.70;83.60
10089;DHT22;51898;49.864;8.550;2023-05-07T02:57:30;14.70;83.60
10089;DHT22;51898;49.864;8.550;2023-05-07T03:00:31;14.70;83.40
10089;DHT22;51898;49.864;8.550;2023-05-07T03:03:33;14.70;83.30
10089;DHT22;51898;49.864;8.550;2023-05-07T03:06:35;14.70;83.20
10089;DHT22;51898;49.864;8.550;2023-05-07T03:09:36;14.80;83.00
10089;DHT22;51898;49.864;8.550;2023-05-07T03:12:38;14.80;83.00
10089;DHT22;51898;49.864;8.550;2023-05-07T03:15:39;14.80;82.90
10089;DHT22;51898;49.864;8.550;2023-05-07T03:18:41;14.80;82.80
10089;DHT22;51898;49.864;8.550;2023-05-07T03:21:43;14.80;82.60
10089;DHT22;51898;49.864;8.550;2023-05-07T03:24:44;14.80;82.60
10089;DHT22;51898;49.864;8.550;2023-05-07T03:27:46;14.70;82.80
10089;DHT22;51898;49.864;8.550;2023-05-07T03:30:48;14.70;83.00
10089;DHT22;51898;49.864;8.550;2023-05-07T03:33:51;14.70;83.10
10089;DHT22;51898;49.864;8.550;2023-05-07T03:36:53;14.70;83.00
10089;DHT22;51898;49.864;8.550;2023-05-07T03:39:54;14.70;83.00
10089;DHT22;51898;49.864;8.550;2023-05-07T03:42:56;14.60;83.20
10089;DHT22;51898;49.864;8.550;2023-05-07T03:45:58;14.60;83.10
10089;DHT22;51898;49.864;8.550;2023-05-07T03:49:00;14.60;83.20
10089;DHT22;51898;49.864;8.550;2023-05-07T03:52:01;14.60;83.00
10089;DHT22;51898;49.864;8.550;2023-05-07T03:55:03;14.50;83.20
10089;DHT22;51898;49.864;8.550;2023-05-07T03:58:05;14.50;83.10
10089;DHT22;51898;49.864;8.550;2023-05-07T04:01:06;14.60;83.10
10089;DHT22;51898;49.864;8.550;2023-05-07T04:04:08;14.50;83.00
10089;DHT22;51898;49.864;8.550;2023-05-07T04:07:10;14.50;82.90
10089;DHT22;51898;49.864;8.550;2023-05-07T04:10:12;14.50;83.00
10089;DHT22;51898;49.864;8.550;2023-05-07T04:13:14;14.50;82.90
10089;DHT22;51898;49.864;8.550;2023-05-07T04:16:16;14.50;82.80
10089;DHT22;51898;49.864;8.550;2023-05-07T04:19:18;14.50;82.80
10089;DHT22;51898;49.864;8.550;2023-05-07T04:22:19;14.50;82.40
10089;DHT22;51898;49.864;8.550;2023-05-07T04:25:21;14.50;82.20
10089;DHT22;51898;49.864;8.550;2023-05-07T04:28:23;14.50;82.10
10089;DHT22;51898;49.864;8.550;2023-05-07T04:31:25;14.60;82.00
10089;DHT22;51898;49.864;8.550;2023-05-07T04:34:27;14.50;82.00
10089;DHT22;51898;49.864;8.550;2023-05-07T04:37:28;14.50;81.90
10089;DHT22;51898;49.864;8.550;2023-05-07T04:40:30;14.50;81.80
10089;DHT22;51898;49.864;8.550;2023-05-07T04:43:32;14.50;81.40
10089;DHT22;51898;49.864;8.550;2023-05-07T04:46:34;14.60;80.90
10089;DHT22;51898;49.864;8.550;2023-05-07T04:49:37;14.70;80.40
10089;DHT22;51898;49.864;8.550;2023-05-07T04:52:39;14.80;80.00
10089;DHT22;51898;49.864;8.550;2023-05-07T04:55:41;14.80;79.50
10089;DHT22;51898;49.864;8.550;2023-05-07T04:58:42;14.80;79.30
10089;DHT22;51898;49.864;8.550;2023-05-07T05:01:44;14.90;78.90
10089;DHT22;51898;49.864;8.550;2023-05-07T05:04:46;15.00;78.70
10089;DHT22;51898;49.864;8.550;2023-05-07T05:07:48;15.00;78.40
10089;DHT22;51898;49.864;8.550;2023-05-07T05:10:49;15.10;78.00
10089;DHT22;51898;49.864;8.550;2023-05-07T05:13:51;15.20;77.90
10089;DHT22;51898;49.864;8.550;2023-05-07T05:16:53;15.20;77.30
10089;DHT22;51898;49.864;8.550;2023-05-07T05:19:54;15.30;77.00
10089;DHT22;51898;49.864;8.550;2023-05-07T05:22:56;15.40;77.20
10089;DHT22;51898;49.864;8.550;2023-05-07T05:25:58;15.40;77.00
10089;DHT22;51898;49.864;8.550;2023-05-07T05:29:00;15.40;76.80
10089;DHT22;51898;49.864;8.550;2023-05-07T05:32:02;15.50;76.50
10089;DHT22;51898;49.864;8.550;2023-05-07T05:35:04;15.40;76.50
10089;DHT22;51898;49.864;8.550;2023-05-07T05:38:05;15.50;76.00
10089;DHT22;51898;49.864;8.550;2023-05-07T05:41:07;15.60;76.00
10089;DHT22;51898;49.864;8.550;2023-05-07T05:44:09;15.60;75.30
10089;DHT22;51898;49.864;8.550;2023-05-07T05:47:10;15.70;74.90
10089;DHT22;51898;49.864;8.550;2023-05-07T05:50:12;15.70;74.70
10089;DHT22;51898;49.864;8.550;2023-05-07T05:53:14;15.80;74.00
10089;DHT22;51898;49.864;8.550;2023-05-07T05:56:16;15.90;73.50
10089;DHT22;51898;49.864;8.550;2023-05-07T05:59:18;16.00;73.10
10089;DHT22;51898;49.864;8.550;2023-05-07T06:02:19;16.10;72.80
10089;DHT22;51898;49.864;8.550;2023-05-07T06:05:21;16.30;72.30
10089;DHT22;51898;49.864;8.550;2023-05-07T06:08:23;16.40;71.50
10089;DHT22;51898;49.864;8.550;2023-05-07T06:11:25;16.50;70.90
10089;DHT22;51898;49.864;8.550;2023-05-07T06:14:27;16.50;70.90
10089;DHT22;51898;49.864;8.550;2023-05-07T06:17:28;16.50;70.70
10089;DHT22;51898;49.864;8.550;2023-05-07T06:20:30;16.60;70.40
10089;DHT22;51898;49.864;8.550;2023-05-07T06:23:32;16.60;70.30
10089;DHT22;51898;49.864;8.550;2023-05-07T06:26:33;16.70;70.10
10089;DHT22;51898;49.864;8.550;2023-05-07T06:29:35;16.70;70.10
10089;DHT22;51898;49.864;8.550;2023-05-07T06:32:37;16.70;69.90
10089;DHT22;51898;49.864;8.550;2023-05-07T06:35:38;16.60;69.70
10089;DHT22;51898;49.864;8.550;2023-05-07T06:38:40;16.70;69.80
10089;DHT22;51898;49.864;8.550;2023-05-07T06:41:41;16.60;69.90
10089;DHT22;51898;49.864;8.550;2023-05-07T06:44:43;16.70;69.40
10089;DHT22;51898;49.864;8.550;2023-05-07T06:47:45;16.80;69.30
10089;DHT22;51898;49.864;8.550;2023-05-07T06:50:46;16.90;68.90
10089;DHT22;51898;49.864;8.550;2023-05-07T06:53:48;17.00;68.50
10089;DHT22;51898;49.864;8.550;2023-05-07T06:56:50;17.00;68.60
10089;DHT22;51898;49.864;8.550;2023-05-07T06:59:51;17.00;68.70
10089;DHT22;51898;49.864;8.550;2023-05-07T07:02:54;17.20;68.30
10089;DHT22;51898;49.864;8.550;2023-05-07T07:05:56;17.30;67.70
10089;DHT22;51898;49.864;8.550;2023-05-07T07:08:58;17.30;67.00
10089;DHT22;51898;49.864;8.550;2023-05-07T07:12:00;17.40;67.20
10089;DHT22;51898;49.864;8.550;2023-05-07T07:15:02;17.40;66.60
10089;DHT22;51898;49.864;8.550;2023-05-07T07:18:04;17.30;66.90
10089;DHT22;51898;49.864;8.550;2023-05-07T07:21:05;17.50;66.90
10089;DHT22;51898;49.864;8.550;2023-05-07T07:24:07;17.60;66.20
10089;DHT22;51898;49.864;8.550;2023-05-07T07:27:09;17.70;65.50
10089;DHT22;51898;49.864;8.550;2023-05-07T07:30:11;17.70;65.50
10089;DHT22;51898;49.864;8.550;2023-05-07T07:33:13;17.70;65.50
10089;DHT22;51898;49.864;8.550;2023-05-07T07:36:14;17.80;65.00
10089;DHT22;51898;49.864;8.550;2023-05-07T07:39:16;17.70;65.10
10089;DHT22;51898;49.864;8.550;2023-05-07T07:42:18;17.80;65.20
10089;DHT22;51898;49.864;8.550;2023-05-07T07:45:20;17.90;65.60
10089;DHT22;51898;49.864;8.550;2023-05-07T07:48:22;18.00;65.00
10089;DHT22;51898;49.864;8.550;2023-05-07T07:51:23;17.90;65.20
10089;DHT22;51898;49.864;8.550;2023-05-07T07:54:25;17.80;64.80
10089;DHT22;51898;49.864;8.550;2023-05-07T07:57:27;17.90;64.70
10089;DHT22;51898;49.864;8.550;2023-05-07T08:00:28;17.80;65.20
10089;DHT22;51898;49.864;8.550;2023-05-07T08:03:30;17.90;64.90
10089;DHT22;51898;49.864;8.550;2023-05-07T08:06:34;17.90;65.10
10089;DHT22;51898;49.864;8.550;2023-05-07T08:09:37;18.10;64.50
10089;DHT22;51898;49.864;8.550;2023-05-07T08:12:38;18.20;64.30
10089;DHT22;51898;49.864;8.550;2023-05-07T08:15:40;18.10;64.50
10089;DHT22;51898;49.864;8.550;2023-05-07T08:18:42;18.20;64.20
10089;DHT22;51898;49.864;8.550;2023-05-07T08:21:44;18.20;64.60
10089;DHT22;51898;49.864;8.550;2023-05-07T08:24:45;18.30;64.10
10089;DHT22;51898;49.864;8.550;2023-05-07T08:27:47;18.40;63.70
10089;DHT22;51898;49.864;8.550;2023-05-07T08:30:49;18.40;63.20
10089;DHT22;51898;49.864;8.550;2023-05-07T08:33:50;18.60;63.30
10089;DHT22;51898;49.864;8.550;2023-05-07T08:36:52;18.70;62.40
10089;DHT22;51898;49.864;8.550;2023-05-07T08:39:54;18.80;62.60
10089;DHT22;51898;49.864;8.550;2023-05-07T08:42:56;19.00;61.60
10089;DHT22;51898;49.864;8.550;2023-05-07T08:46:00;19.10;61.70
10089;DHT22;51898;49.864;8.550;2023-05-07T08:49:03;19.30;61.30
10089;DHT22;51898;49.864;8.550;2023-05-07T08:52:05;19.50;60.70
10089;DHT22;51898;49.864;8.550;2023-05-07T08:55:10;19.70;60.20
10089;DHT22;51898;49.864;8.550;2023-05-07T08:58:13;19.70;59.60
10089;DHT22;51898;49.864;8.550;2023-05-07T09:01:16;19.80;59.90
10089;DHT22;51898;49.864;8.550;2023-05-07T09:04:18;20.00;59.60
10089;DHT22;51898;49.864;8.550;2023-05-07T09:07:20;20.00;59.10
10089;DHT22;51898;49.864;8.550;2023-05-07T09:10:22;20.10;58.80
10089;DHT22;51898;49.864;8.550;2023-05-07T09:13:23;20.20;58.80
10089;DHT22;51898;49.864;8.550;2023-05-07T09:16:26;20.30;58.20
10089;DHT22;51898;49.864;8.550;2023-05-07T09:19:28;20.30;58.10
10089;DHT22;51898;49.864;8.550;2023-05-07T09:22:36;20.40;57.80
10089;DHT22;51898;49.864;8.550;2023-05-07T09:25:38;20.50;57.90
10089;DHT22;51898;49.864;8.550;2023-05-07T09:28:40;20.60;57.50
10089;DHT22;51898;49.864;8.550;2023-05-07T09:31:45;20.60;57.80
10089;DHT22;51898;49.864;8.550;2023-05-07T09:34:47;20.70;57.60
10089;DHT22;51898;49.864;8.550;2023-05-07T09:37:49;20.90;57.10
10089;DHT22;51898;49.864;8.550;2023-05-07T09:41:02;20.90;56.80
10089;DHT22;51898;49.864;8.550;2023-05-07T09:44:05;20.80;57.00
10089;DHT22;51898;49.864;8.550;2023-05-07T09:47:10;21.10;56.20
10089;DHT22;51898;49.864;8.550;2023-05-07T09:50:16;21.30;55.70
10089;DHT22;51898;49.864;8.550;2023-05-07T09:53:18;21.50;55.30
10089;DHT22;51898;49.864;8.550;2023-05-07T09:56:21;21.30;55.70
10089;DHT22;51898;49.864;8.550;2023-05-07T09:59:23;21.20;55.80
10089;DHT22;51898;49.864;8.550;2023-05-07T10:02:29;21.30;55.80
10089;DHT22;51898;49.864;8.550;2023-05-07T10:05:32;21.50;55.40
10089;DHT22;51898;49.864;8.550;2023-05-07T10:08:35;21.60;55.60
10089;DHT22;51898;49.864;8.550;2023-05-07T10:11:37;21.50;55.20
10089;DHT22;51898;49.864;8.550;2023-05-07T10:14:39;21.60;54.60
10089;DHT22;51898;49.864;8.550;2023-05-07T10:17:41;21.80;54.90
10089;DHT22;51898;49.864;8.550;2023-05-07T10:20:45;22.10;53.60
10089;DHT22;51898;49.864;8.550;2023-05-07T10:24:04;22.30;53.70
10089;DHT22;51898;49.864;8.550;2023-05-07T10:27:14;22.40;52.90
10089;DHT22;51898;49.864;8.550;2023-05-07T10:30:42;22.50;53.50
10089;DHT22;51898;49.864;8.550;2023-05-07T10:33:47;22.50;53.50
10089;DHT22;51898;49.864;8.550;2023-05-07T10:36:50;22.60;52.80
10089;DHT22;51898;49.864;8.550;2023-05-07T10:39:53;22.70;52.70
10089;DHT22;51898;49.864;8.550;2023-05-07T10:43:03;22.60;52.80
10089;DHT22;51898;49.864;8.550;2023-05-07T10:46:18;22.70;52.80
10089;DHT22;51898;49.864;8.550;2023-05-07T10:49:20;22.80;52.30
10089;DHT22;51898;49.864;8.550;2023-05-07T10:52:25;22.90;52.10
10089;DHT22;51898;49.864;8.550;2023-05-07T10:55:31;23.00;51.60
10089;DHT22;51898;49.864;8.550;2023-05-07T10:58:33;22.80;51.80
10089;DHT22;51898;49.864;8.550;2023-05-07T11:01:59;22.80;52.60
10089;DHT22;51898;49.864;8.550;2023-05-07T11:05:22;23.00;51.00
10089;DHT22;51898;49.864;8.550;2023-05-07T11:08:23;23.20;50.60
10089;DHT22;51898;49.864;8.550;2023-05-07T11:11:47;23.30;50.40
10089;DHT22;51898;49.864;8.550;2023-05-07T11:14:49;23.30;50.20
10089;DHT22;51898;49.864;8.550;2023-05-07T11:17:54;23.40;50.20
10089;DHT22;51898;49.864;8.550;2023-05-07T11:20:57;23.70;50.20
10089;DHT22;51898;49.864;8.550;2023-05-07T11:24:01;23.80;48.40
10089;DHT22;51898;49.864;8.550;2023-05-07T11:27:03;23.70;49.20
10089;DHT22;51898;49.864;8.550;2023-05-07T11:30:05;23.60;48.80
10089;DHT22;51898;49.864;8.550;2023-05-07T11:33:07;23.80;48.70
10089;DHT22;51898;49.864;8.550;2023-05-07T11:36:09;23.90;48.70
10089;DHT22;51898;49.864;8.550;2023-05-07T11:39:32;24.30;47.40
10089;DHT22;51898;49.864;8.550;2023-05-07T11:42:38;24.60;47.10
10089;DHT22;51898;49.864;8.550;2023-05-07T11:45:40;24.50;46.10
10089;DHT22;51898;49.864;8.550;2023-05-07T11:48:43;24.40;45.60
10089;DHT22;51898;49.864;8.550;2023-05-07T11:51:45;24.30;46.20
10089;DHT22;51898;49.864;8.550;2023-05-07T11:54:56;24.30;45.80
10089;DHT22;51898;49.864;8.550;2023-05-07T11:57:57;24.20;45.70
10089;DHT22;51898;49.864;8.550;2023-05-07T12:00:59;24.50;47.20
10089;DHT22;51898;49.864;8.550;2023-05-07T12:04:03;24.70;45.70
10089;DHT22;51898;49.864;8.550;2023-05-07T12:07:05;25.10;45.10
10089;DHT22;51898;49.864;8.550;2023-05-07T12:10:07;25.40;44.50
10089;DHT22;51898;49.864;8.550;2023-05-07T12:13:16;25.40;43.50
10089;DHT22;51898;49.864;8.550;2023-05-07T12:16:19;25.40;44.10
10089;DHT22;51898;49.864;8.550;2023-05-07T12:19:21;25.40;44.50
10089;DHT22;51898;49.864;8.550;2023-05-07T12:22:23;25.60;43.90
10089;DHT22;51898;49.864;8.550;2023-05-07T12:25:25;25.60;42.20
10089;DHT22;51898;49.864;8.550;2023-05-07T12:28:26;25.70;42.90
10089;DHT22;51898;49.864;8.550;2023-05-07T12:31:28;26.00;43.00
10089;DHT22;51898;49.864;8.550;2023-05-07T12:34:31;26.30;40.80
10089;DHT22;51898;49.864;8.550;2023-05-07T12:37:33;25.90;41.00
10089;DHT22;51898;49.864;8.550;2023-05-07T12:40:38;25.60;41.70
10089;DHT22;51898;49.864;8.550;2023-05-07T12:43:44;25.60;41.70
10089;DHT22;51898;49.864;8.550;2023-05-07T12:46:46;25.40;41.20
10089;DHT22;51898;49.864;8.550;2023-05-07T12:49:48;25.60;40.30
10089;DHT22;51898;49.864;8.550;2023-05-07T12:52:50;25.70;41.10
10089;DHT22;51898;49.864;8.550;2023-05-07T12:55:57;25.60;41.50
10089;DHT22;51898;49.864;8.550;2023-05-07T12:58:59;25.80;40.80
10089;DHT22;51898;49.864;8.550;2023-05-07T13:02:01;25.90;40.50
10089;DHT22;51898;49.864;8.550;2023-05-07T13:05:03;26.00;40.80
10089;DHT22;51898;49.864;8.550;2023-05-07T13:08:05;25.90;40.90
10089;DHT22;51898;49.864;8.550;2023-05-07T13:11:07;25.90;41.60
10089;DHT22;51898;49.864;8.550;2023-05-07T13:14:09;26.00;41.70
10089;DHT22;51898;49.864;8.550;2023-05-07T13:17:11;26.20;41.00
10089;DHT22;51898;49.864;8.550;2023-05-07T13:20:13;26.00;41.30
10089;DHT22;51898;49.864;8.550;2023-05-07T13:23:14;25.90;42.00
10089;DHT22;51898;49.864;8.550;2023-05-07T13:26:16;25.70;41.20
10089;DHT22;51898;49.864;8.550;2023-05-07T13:29:27;25.70;42.10
10089;DHT22;51898;49.864;8.550;2023-05-07T13:32:33;25.90;41.40
10089;DHT22;51898;49.864;8.550;2023-05-07T13:35:35;26.10;41.50
10089;DHT22;51898;49.864;8.550;2023-05-07T13:38:37;26.10;40.60
10089;DHT22;51898;49.864;8.550;2023-05-07T13:41:38;26.20;40.70
10089;DHT22;51898;49.864;8.550;2023-05-07T13:44:40;26.10;41.40
10089;DHT22;51898;49.864;8.550;2023-05-07T13:47:41;26.10;40.50
10089;DHT22;51898;49.864;8.550;2023-05-07T13:50:43;26.20;40.30
10089;DHT22;51898;49.864;8.550;2023-05-07T13:53:45;26.10;41.30
10089;DHT22;51898;49.864;8.550;2023-05-07T13:56:46;26.00;41.30
10089;DHT22;51898;49.864;8.550;2023-05-07T13:59:48;25.90;41.30
10089;DHT22;51898;49.864;8.550;2023-05-07T14:02:50;25.80;41.80
10089;DHT22;51898;49.864;8.550;2023-05-07T14:05:52;25.70;41.40
10089;DHT22;51898;49.864;8.550;2023-05-07T14:08:53;25.80;41.70
10089;DHT22;51898;49.864;8.550;2023-05-07T14:11:55;25.70;41.70
10089;DHT22;51898;49.864;8.550;2023-05-07T14:14:57;25.70;41.50
10089;DHT22;51898;49.864;8.550;2023-05-07T14:17:59;25.70;41.60
10089;DHT22;51898;49.864;8.550;2023-05-07T14:21:01;25.70;41.70
10089;DHT22;51898;49.864;8.550;2023-05-07T14:24:05;25.90;41.20
10089;DHT22;51898;49.864;8.550;2023-05-07T14:27:07;26.00;41.20
10089;DHT22;51898;49.864;8.550;2023-05-07T14:30:09;26.10;40.90
10089;DHT22;51898;49.864;8.550;2023-05-07T14:33:11;25.80;40.60
10089;DHT22;51898;49.864;8.550;2023-05-07T14:36:13;25.70;41.40
10089;DHT22;51898;49.864;8.550;2023-05-07T14:39:14;25.60;41.20
10089;DHT22;51898;49.864;8.550;2023-05-07T14:42:16;25.50;41.60
10089;DHT22;51898;49.864;8.550;2023-05-07T14:45:18;25.40;42.20
10089;DHT22;51898;49.864;8.550;2023-05-07T14:48:20;25.20;42.60
10089;DHT22;51898;49.864;8.550;2023-05-07T14:51:21;25.10;42.40
10089;DHT22;51898;49.864;8.550;2023-05-07T14:54:23;25.00;42.90
10089;DHT22;51898;49.864;8.550;2023-05-07T14:57:25;24.90;43.10
10089;DHT22;51898;49.864;8.550;2023-05-07T15:00:26;24.90;43.30
10089;DHT22;51898;49.864;8.550;2023-05-07T15:03:29;24.90;43.60
10089;DHT22;51898;49.864;8.550;2023-05-07T15:06:32;24.80;43.60
10089;DHT22;51898;49.864;8.550;2023-05-07T15:09:34;24.70;43.90
10089;DHT22;51898;49.864;8.550;2023-05-07T15:12:36;24.50;44.00
10089;DHT22;51898;49.864;8.550;2023-05-07T15:15:38;24.40;44.20
10089;DHT22;51898;49.864;8.550;2023-05-07T15:18:40;24.40;44.80
10089;DHT22;51898;49.864;8.550;2023-05-07T15:21:42;24.30;44.10
10089;DHT22;51898;49.864;8.550;2023-05-07T15:24:43;24.10;44.60
10089;DHT22;51898;49.864;8.550;2023-05-07T15:27:45;24.00;44.70
10089;DHT22;51898;49.864;8.550;2023-05-07T15:30:47;23.90;45.20
10089;DHT22;51898;49.864;8.550;2023-05-07T15:33:48;23.80;45.40
10089;DHT22;51898;49.864;8.550;2023-05-07T15:36:54;23.80;45.60
10089;DHT22;51898;49.864;8.550;2023-05-07T15:39:56;23.80;45.80
10089;DHT22;51898;49.864;8.550;2023-05-07T15:42:58;23.70;46.20
10089;DHT22;51898;49.864;8.550;2023-05-07T15:45:59;23.60;47.00
10089;DHT22;51898;49.864;8.550;2023-05-07T15:49:02;23.50;48.10
10089;DHT22;51898;49.864;8.550;2023-05-07T15:52:07;23.30;54.10
10089;DHT22;51898;49.864;8.550;2023-05-07T15:55:11;22.30;61.60
10089;DHT22;51898;49.864;8.550;2023-05-07T15:58:13;21.30;66.60
10089;DHT22;51898;49.864;8.550;2023-05-07T16:01:15;20.30;70.20
10089;DHT22;51898;49.864;8.550;2023-05-07T16:04:17;19.60;73.90
10089;DHT22;51898;49.864;8.550;2023-05-07T16:07:18;19.10;76.60
10089;DHT22;51898;49.864;8.550;2023-05-07T16:10:20;18.70;78.80
10089;DHT22;51898;49.864;8.550;2023-05-07T16:13:21;18.30;81.60
10089;DHT22;51898;49.864;8.550;2023-05-07T16:16:25;18.10;82.50
10089;DHT22;51898;49.864;8.550;2023-05-07T16:19:30;17.90;82.50
10089;DHT22;51898;49.864;8.550;2023-05-07T16:22:32;17.70;83.20
10089;DHT22;51898;49.864;8.550;2023-05-07T16:25:33;17.60;84.00
10089;DHT22;51898;49.864;8.550;2023-05-07T16:28:35;17.50;84.80
10089;DHT22;51898;49.864;8.550;2023-05-07T16:31:37;17.40;85.00
10089;DHT22;51898;49.864;8.550;2023-05-07T16:34:39;17.30;85.60
10089;DHT22;51898;49.864;8.550;2023-05-07T16:37:41;17.20;86.10
10089;DHT22;51898;49.864;8.550;2023-05-07T16:40:43;17.10;86.70
10089;DHT22;51898;49.864;8.550;2023-05-07T16:43:44;17.00;87.40
10089;DHT22;51898;49.864;8.550;2023-05-07T16:46:46;16.90;88.50
10089;DHT22;51898;49.864;8.550;2023-05-07T16:49:48;16.80;89.00
10089;DHT22;51898;49.864;8.550;2023-05-07T16:52:50;16.60;90.00
10089;DHT22;51898;49.864;8.550;2023-05-07T16:55:52;16.60;90.60
10089;DHT22;51898;49.864;8.550;2023-05-07T16:58:56;16.50;90.40
10089;DHT22;51898;49.864;8.550;2023-05-07T17:01:58;16.50;90.40
10089;DHT22;51898;49.864;8.550;2023-05-07T17:05:00;16.50;90.10
10089;DHT22;51898;49.864;8.550;2023-05-07T17:08:01;16.40;90.40
10089;DHT22;51898;49.864;8.550;2023-05-07T17:11:03;16.50;90.50
10089;DHT22;51898;49.864;8.550;2023-05-07T17:14:05;16.50;90.90
10089;DHT22;51898;49.864;8.550;2023-05-07T17:17:06;16.50;90.80
10089;DHT22;51898;49.864;8.550;2023-05-07T17:20:09;16.50;91.10
10089;DHT22;51898;49.864;8.550;2023-05-07T17:23:11;16.50;91.10
10089;DHT22;51898;49.864;8.550;2023-05-07T17:26:13;16.50;91.20
10089;DHT22;51898;49.864;8.550;2023-05-07T17:29:15;16.40;91.30
10089;DHT22;51898;49.864;8.550;2023-05-07T17:32:17;16.40;91.60
10089;DHT22;51898;49.864;8.550;2023-05-07T17:35:18;16.40;91.50
10089;DHT22;51898;49.864;8.550;2023-05-07T17:38:20;16.40;91.30
10089;DHT22;51898;49.864;8.550;2023-05-07T17:41:22;16.40;91.40
10089;DHT22;51898;49.864;8.550;2023-05-07T17:44:23;16.30;91.20
10089;DHT22;51898;49.864;8.550;2023-05-07T17:47:25;16.30;91.40
10089;DHT22;51898;49.864;8.550;2023-05-07T17:50:27;16.30;91.20
10089;DHT22;51898;49.864;8.550;2023-05-07T17:53:29;16.30;90.30
10089;DHT22;51898;49.864;8.550;2023-05-07T17:56:31;16.20;90.50
10089;DHT22;51898;49.864;8.550;2023-05-07T17:59:33;16.20;90.20
10089;DHT22;51898;49.864;8.550;2023-05-07T18:02:35;16.20;90.70
10089;DHT22;51898;49.864;8.550;2023-05-07T18:05:37;16.20;91.10
10089;DHT22;51898;49.864;8.550;2023-05-07T18:08:40;16.20;91.10
10089;DHT22;51898;49.864;8.550;2023-05-07T18:11:41;16.20;90.90
10089;DHT22;51898;49.864;8.550;2023-05-07T18:14:43;16.20;91.10
10089;DHT22;51898;49.864;8.550;2023-05-07T18:17:44;16.20;91.00
10089;DHT22;51898;49.864;8.550;2023-05-07T18:20:49;16.20;91.10
10089;DHT22;51898;49.864;8.550;2023-05-07T18:23:51;16.20;91.30
10089;DHT22;51898;49.864;8.550;2023-05-07T18:26:53;16.20;91.10
10089;DHT22;51898;49.864;8.550;2023-05-07T18:29:55;16.20;91.00
10089;DHT22;51898;49.864;8.550;2023-05-07T18:32:57;16.20;91.30
10089;DHT22;51898;49.864;8.550;2023-05-07T18:35:59;16.20;91.40
10089;DHT22;51898;49.864;8.550;2023-05-07T18:39:01;16.20;91.40
10089;DHT22;51898;49.864;8.550;2023-05-07T18:42:02;16.20;91.20
10089;DHT22;51898;49.864;8.550;2023-05-07T18:45:06;16.20;91.30
10089;DHT22;51898;49.864;8.550;2023-05-07T18:48:07;16.20;91.80
10089;DHT22;51898;49.864;8.550;2023-05-07T18:51:09;16.00;92.20
10089;DHT22;51898;49.864;8.550;2023-05-07T18:54:13;16.10;92.00
10089;DHT22;51898;49.864;8.550;2023-05-07T18:57:14;16.10;92.10
10089;DHT22;51898;49.864;8.550;2023-05-07T19:00:17;16.10;92.60
10089;DHT22;51898;49.864;8.550;2023-05-07T19:03:19;16.10;93.00
10089;DHT22;51898;49.864;8.550;2023-05-07T19:06:21;16.10;93.50
10089;DHT22;51898;49.864;8.550;2023-05-07T19:09:22;16.10;94.10
10089;DHT22;51898;49.864;8.550;2023-05-07T19:12:24;16.00;94.50